sensor_id;sensor_type;location;lat;lon;timestamp;temperature;humidity
73547;SHT30;61807;48.384;-4.386;2022-07-23T00:00:02;17.11;66.96
73547;SHT30;61807;48.384;-4.386;2022-07-23T00:02:27;17.08;67.07
73547;SHT30;61807;48.384;-4.386;2022-07-23T00:04:53;17.10;67.27
73547;SHT30;61807;48.384;-4.386;2022-07-23T00:07:18;17.07;67.31
73547;SHT30;61807;48.384;-4.386;2022-07-23T00:09:44;17.07;67.41
73547;SHT30;61807;48.384;-4.386;2022-07-23T00:12:09;17.04;67.54
73547;SHT30;61807;48.384;-4.386;2022-07-23T00:14:35;17.04;67.45
73547;SHT30;61807;48.384;-4.386;2022-07-23T00:17:00;17.01;67.44
73547;SHT30;61807;48.384;-4.386;2022-07-23T00:19:25;17.03;67.55
73547;SHT30;61807;48.384;-4.386;2022-07-23T00:21:51;17.03;67.63
73547;SHT30;61807;48.384;-4.386;2022-07-23T00:24:16;17.03;67.53
73547;SHT30;61807;48.384;-4.386;2022-07-23T00:26:42;17.00;67.65
73547;SHT30;61807;48.384;-4.386;2022-07-23T00:29:07;16.99;67.73
73547;SHT30;61807;48.384;-4.386;2022-07-23T00:31:32;16.93;67.81
73547;SHT30;61807;48.384;-4.386;2022-07-23T00:33:58;16.88;67.98
73547;SHT30;61807;48.384;-4.386;2022-07-23T00:36:26;16.88;68.30
73547;SHT30;61807;48.384;-4.386;2022-07-23T00:38:52;16.87;68.23
73547;SHT30;61807;48.384;-4.386;2022-07-23T00:41:17;16.87;68.56
73547;SHT30;61807;48.384;-4.386;2022-07-23T00:43:43;16.84;68.45
73547;SHT30;61807;48.384;-4.386;2022-07-23T00:46:08;16.87;68.67
73547;SHT30;61807;48.384;-4.386;2022-07-23T00:48:33;16.88;68.65
73547;SHT30;61807;48.384;-4.386;2022-07-23T00:50:59;16.93;68.73
73547;SHT30;61807;48.384;-4.386;2022-07-23T00:53:24;16.90;68.74
73547;SHT30;61807;48.384;-4.386;2022-07-23T00:55:50;16.95;68.71
73547;SHT30;61807;48.384;-4.386;2022-07-23T00:58:16;16.94;68.92
73547;SHT30;61807;48.384;-4.386;2022-07-23T01:00:42;16.94;69.18
73547;SHT30;61807;48.384;-4.386;2022-07-23T01:03:07;16.93;69.21
73547;SHT30;61807;48.384;-4.386;2022-07-23T01:05:33;16.95;69.31
73547;SHT30;61807;48.384;-4.386;2022-07-23T01:07:58;17.00;69.54
73547;SHT30;61807;48.384;-4.386;2022-07-23T01:10:24;16.99;69.64
73547;SHT30;61807;48.384;-4.386;2022-07-23T01:13:06;17.00;69.78
73547;SHT30;61807;48.384;-4.386;2022-07-23T01:15:34;17.01;69.78
73547;SHT30;61807;48.384;-4.386;2022-07-23T01:18:00;17.01;69.74
73547;SHT30;61807;48.384;-4.386;2022-07-23T01:20:25;17.03;69.99
73547;SHT30;61807;48.384;-4.386;2022-07-23T01:22:52;17.01;70.10
73547;SHT30;61807;48.384;-4.386;2022-07-23T01:25:18;16.99;70.61
73547;SHT30;61807;48.384;-4.386;2022-07-23T01:27:43;16.95;70.36
73547;SHT30;61807;48.384;-4.386;2022-07-23T01:30:09;16.97;70.39
73547;SHT30;61807;48.384;-4.386;2022-07-23T01:32:35;16.94;70.46
73547;SHT30;61807;48.384;-4.386;2022-07-23T01:35:00;16.94;70.45
73547;SHT30;61807;48.384;-4.386;2022-07-23T01:37:26;16.94;70.43
73547;SHT30;61807;48.384;-4.386;2022-07-23T01:39:51;16.93;70.54
73547;SHT30;61807;48.384;-4.386;2022-07-23T01:42:17;16.91;70.59
73547;SHT30;61807;48.384;-4.386;2022-07-23T01:44:42;16.93;70.77
73547;SHT30;61807;48.384;-4.386;2022-07-23T01:47:07;16.93;70.72
73547;SHT30;61807;48.384;-4.386;2022-07-23T01:49:33;16.94;70.93
73547;SHT30;61807;48.384;-4.386;2022-07-23T01:51:58;16.91;70.92
73547;SHT30;61807;48.384;-4.386;2022-07-23T01:54:32;16.91;70.95
73547;SHT30;61807;48.384;-4.386;2022-07-23T01:56:58;16.91;70.89
73547;SHT30;61807;48.384;-4.386;2022-07-23T01:59:23;16.93;70.95
73547;SHT30;61807;48.384;-4.386;2022-07-23T02:01:49;16.93;70.97
73547;SHT30;61807;48.384;-4.386;2022-07-23T02:04:21;16.93;70.93
73547;SHT30;61807;48.384;-4.386;2022-07-23T02:06:47;16.93;71.16
73547;SHT30;61807;48.384;-4.386;2022-07-23T02:09:13;16.90;71.03
73547;SHT30;61807;48.384;-4.386;2022-07-23T02:11:39;16.88;71.22
73547;SHT30;61807;48.384;-4.386;2022-07-23T02:14:05;16.88;71.28
73547;SHT30;61807;48.384;-4.386;2022-07-23T02:16:30;16.90;71.40
73547;SHT30;61807;48.384;-4.386;2022-07-23T02:18:56;16.90;71.42
73547;SHT30;61807;48.384;-4.386;2022-07-23T02:21:21;16.91;71.42
73547;SHT30;61807;48.384;-4.386;2022-07-23T02:23:46;16.91;71.51
73547;SHT30;61807;48.384;-4.386;2022-07-23T02:26:12;16.88;71.49
73547;SHT30;61807;48.384;-4.386;2022-07-23T02:28:37;16.88;71.50
73547;SHT30;61807;48.384;-4.386;2022-07-23T02:31:03;16.88;71.56
73547;SHT30;61807;48.384;-4.386;2022-07-23T02:33:28;16.90;71.65
73547;SHT30;61807;48.384;-4.386;2022-07-23T02:35:54;16.91;71.65
73547;SHT30;61807;48.384;-4.386;2022-07-23T02:38:19;16.95;71.74
73547;SHT30;61807;48.384;-4.386;2022-07-23T02:40:45;16.97;71.78
73547;SHT30;61807;48.384;-4.386;2022-07-23T02:43:10;16.94;71.72
73547;SHT30;61807;48.384;-4.386;2022-07-23T02:45:35;16.94;71.78
73547;SHT30;61807;48.384;-4.386;2022-07-23T02:48:01;16.93;72.01
73547;SHT30;61807;48.384;-4.386;2022-07-23T02:50:26;16.93;72.02
73547;SHT30;61807;48.384;-4.386;2022-07-23T02:52:52;16.93;72.30
73547;SHT30;61807;48.384;-4.386;2022-07-23T02:55:17;16.91;72.45
73547;SHT30;61807;48.384;-4.386;2022-07-23T02:57:43;16.93;72.49
73547;SHT30;61807;48.384;-4.386;2022-07-23T03:00:09;16.97;72.59
73547;SHT30;61807;48.384;-4.386;2022-07-23T03:02:34;16.97;72.69
73547;SHT30;61807;48.384;-4.386;2022-07-23T03:05:00;17.00;72.79
73547;SHT30;61807;48.384;-4.386;2022-07-23T03:07:25;17.03;72.83
73547;SHT30;61807;48.384;-4.386;2022-07-23T03:09:51;17.07;72.84
73547;SHT30;61807;48.384;-4.386;2022-07-23T03:12:16;17.07;72.78
73547;SHT30;61807;48.384;-4.386;2022-07-23T03:14:42;17.08;72.78
73547;SHT30;61807;48.384;-4.386;2022-07-23T03:17:07;17.10;72.69
73547;SHT30;61807;48.384;-4.386;2022-07-23T03:19:33;17.11;72.78
73547;SHT30;61807;48.384;-4.386;2022-07-23T03:21:58;17.11;72.76
73547;SHT30;61807;48.384;-4.386;2022-07-23T03:24:24;17.14;72.80
73547;SHT30;61807;48.384;-4.386;2022-07-23T03:27:09;17.12;73.01
73547;SHT30;61807;48.384;-4.386;2022-07-23T03:29:35;17.12;72.89
73547;SHT30;61807;48.384;-4.386;2022-07-23T03:32:02;17.10;72.86
73547;SHT30;61807;48.384;-4.386;2022-07-23T03:34:28;17.08;72.96
73547;SHT30;61807;48.384;-4.386;2022-07-23T03:36:53;17.07;73.23
73547;SHT30;61807;48.384;-4.386;2022-07-23T03:39:18;17.03;73.14
73547;SHT30;61807;48.384;-4.386;2022-07-23T03:41:44;17.04;73.05
73547;SHT30;61807;48.384;-4.386;2022-07-23T03:44:09;17.07;73.07
73547;SHT30;61807;48.384;-4.386;2022-07-23T03:46:35;17.04;73.04
73547;SHT30;61807;48.384;-4.386;2022-07-23T03:49:00;17.04;73.03
73547;SHT30;61807;48.384;-4.386;2022-07-23T03:51:25;17.08;73.07
73547;SHT30;61807;48.384;-4.386;2022-07-23T03:53:51;17.06;73.29
73547;SHT30;61807;48.384;-4.386;2022-07-23T03:56:16;17.04;73.44
73547;SHT30;61807;48.384;-4.386;2022-07-23T03:58:41;17.03;73.45
73547;SHT30;61807;48.384;-4.386;2022-07-23T04:01:07;17.03;73.42
73547;SHT30;61807;48.384;-4.386;2022-07-23T04:03:32;17.06;73.56
73547;SHT30;61807;48.384;-4.386;2022-07-23T04:05:58;16.99;73.65
73547;SHT30;61807;48.384;-4.386;2022-07-23T04:08:23;16.99;73.66
73547;SHT30;61807;48.384;-4.386;2022-07-23T04:10:48;16.99;73.84
73547;SHT30;61807;48.384;-4.386;2022-07-23T04:13:14;16.97;73.82
73547;SHT30;61807;48.384;-4.386;2022-07-23T04:15:39;16.99;73.92
73547;SHT30;61807;48.384;-4.386;2022-07-23T04:18:05;17.04;73.90
73547;SHT30;61807;48.384;-4.386;2022-07-23T04:20:30;17.07;73.91
73547;SHT30;61807;48.384;-4.386;2022-07-23T04:22:55;17.08;73.83
73547;SHT30;61807;48.384;-4.386;2022-07-23T04:25:21;17.10;73.74
73547;SHT30;61807;48.384;-4.386;2022-07-23T04:27:46;17.15;73.71
73547;SHT30;61807;48.384;-4.386;2022-07-23T04:30:12;17.11;73.72
73547;SHT30;61807;48.384;-4.386;2022-07-23T04:32:37;17.11;73.55
73547;SHT30;61807;48.384;-4.386;2022-07-23T04:35:03;17.08;73.52
73547;SHT30;61807;48.384;-4.386;2022-07-23T04:37:28;17.07;73.50
73547;SHT30;61807;48.384;-4.386;2022-07-23T04:39:54;17.07;73.57
73547;SHT30;61807;48.384;-4.386;2022-07-23T04:42:19;17.01;73.62
73547;SHT30;61807;48.384;-4.386;2022-07-23T04:44:44;17.00;73.71
73547;SHT30;61807;48.384;-4.386;2022-07-23T04:47:10;16.97;73.85
73547;SHT30;61807;48.384;-4.386;2022-07-23T04:49:35;16.97;73.90
73547;SHT30;61807;48.384;-4.386;2022-07-23T04:52:01;16.97;73.94
73547;SHT30;61807;48.384;-4.386;2022-07-23T04:54:26;16.97;74.12
73547;SHT30;61807;48.384;-4.386;2022-07-23T04:56:52;16.99;74.24
73547;SHT30;61807;48.384;-4.386;2022-07-23T04:59:17;17.01;74.37
73547;SHT30;61807;48.384;-4.386;2022-07-23T05:01:43;17.03;74.51
73547;SHT30;61807;48.384;-4.386;2022-07-23T05:04:08;17.06;74.43
73547;SHT30;61807;48.384;-4.386;2022-07-23T05:06:33;17.11;74.36
73547;SHT30;61807;48.384;-4.386;2022-07-23T05:08:59;17.17;74.42
73547;SHT30;61807;48.384;-4.386;2022-07-23T05:11:24;17.17;74.79
73547;SHT30;61807;48.384;-4.386;2022-07-23T05:13:50;17.18;74.81
73547;SHT30;61807;48.384;-4.386;2022-07-23T05:16:16;17.20;74.78
73547;SHT30;61807;48.384;-4.386;2022-07-23T05:18:42;17.21;74.91
73547;SHT30;61807;48.384;-4.386;2022-07-23T05:21:07;17.20;74.97
73547;SHT30;61807;48.384;-4.386;2022-07-23T05:23:32;17.22;74.96
73547;SHT30;61807;48.384;-4.386;2022-07-23T05:25:58;17.25;75.27
73547;SHT30;61807;48.384;-4.386;2022-07-23T05:28:23;17.25;74.98
73547;SHT30;61807;48.384;-4.386;2022-07-23T05:30:49;17.28;75.06
73547;SHT30;61807;48.384;-4.386;2022-07-23T05:33:14;17.31;75.11
73547;SHT30;61807;48.384;-4.386;2022-07-23T05:35:40;17.32;75.16
73547;SHT30;61807;48.384;-4.386;2022-07-23T05:38:05;17.36;75.26
73547;SHT30;61807;48.384;-4.386;2022-07-23T05:40:31;17.35;75.38
73547;SHT30;61807;48.384;-4.386;2022-07-23T05:42:58;17.38;75.76
73547;SHT30;61807;48.384;-4.386;2022-07-23T05:45:23;17.38;75.46
73547;SHT30;61807;48.384;-4.386;2022-07-23T05:47:49;17.39;75.42
73547;SHT30;61807;48.384;-4.386;2022-07-23T05:50:15;17.43;75.62
73547;SHT30;61807;48.384;-4.386;2022-07-23T05:52:41;17.43;75.76
73547;SHT30;61807;48.384;-4.386;2022-07-23T05:55:08;17.46;75.73
73547;SHT30;61807;48.384;-4.386;2022-07-23T05:57:34;17.49;75.60
73547;SHT30;61807;48.384;-4.386;2022-07-23T06:00:00;17.53;75.48
73547;SHT30;61807;48.384;-4.386;2022-07-23T06:02:26;17.56;75.43
73547;SHT30;61807;48.384;-4.386;2022-07-23T06:04:51;17.59;75.59
73547;SHT30;61807;48.384;-4.386;2022-07-23T06:07:16;17.59;75.76
73547;SHT30;61807;48.384;-4.386;2022-07-23T06:09:42;17.66;75.62
73547;SHT30;61807;48.384;-4.386;2022-07-23T06:12:07;17.68;75.40
73547;SHT30;61807;48.384;-4.386;2022-07-23T06:14:33;17.72;75.47
73547;SHT30;61807;48.384;-4.386;2022-07-23T06:16:58;17.76;75.42
73547;SHT30;61807;48.384;-4.386;2022-07-23T06:19:24;17.80;75.46
73547;SHT30;61807;48.384;-4.386;2022-07-23T06:21:50;17.86;75.41
73547;SHT30;61807;48.384;-4.386;2022-07-23T06:24:15;17.92;75.18
73547;SHT30;61807;48.384;-4.386;2022-07-23T06:26:41;17.94;75.03
73547;SHT30;61807;48.384;-4.386;2022-07-23T06:29:06;18.03;75.06
73547;SHT30;61807;48.384;-4.386;2022-07-23T06:31:32;18.10;75.09
73547;SHT30;61807;48.384;-4.386;2022-07-23T06:33:58;18.16;75.00
73547;SHT30;61807;48.384;-4.386;2022-07-23T06:36:24;18.20;74.70
73547;SHT30;61807;48.384;-4.386;2022-07-23T06:38:49;18.26;74.80
73547;SHT30;61807;48.384;-4.386;2022-07-23T06:41:15;18.26;74.90
73547;SHT30;61807;48.384;-4.386;2022-07-23T06:43:40;18.27;74.73
73547;SHT30;61807;48.384;-4.386;2022-07-23T06:46:06;18.33;75.06
73547;SHT30;61807;48.384;-4.386;2022-07-23T06:48:31;18.36;74.63
73547;SHT30;61807;48.384;-4.386;2022-07-23T06:50:56;18.47;74.62
73547;SHT30;61807;48.384;-4.386;2022-07-23T06:53:22;18.45;74.59
73547;SHT30;61807;48.384;-4.386;2022-07-23T06:55:47;18.47;74.40
73547;SHT30;61807;48.384;-4.386;2022-07-23T06:58:13;18.55;74.46
73547;SHT30;61807;48.384;-4.386;2022-07-23T07:00:39;18.57;74.36
73547;SHT30;61807;48.384;-4.386;2022-07-23T07:03:05;18.62;74.11
73547;SHT30;61807;48.384;-4.386;2022-07-23T07:05:30;18.72;73.94
73547;SHT30;61807;48.384;-4.386;2022-07-23T07:07:56;18.79;73.82
73547;SHT30;61807;48.384;-4.386;2022-07-23T07:10:21;18.82;73.74
73547;SHT30;61807;48.384;-4.386;2022-07-23T07:12:46;18.85;73.52
73547;SHT30;61807;48.384;-4.386;2022-07-23T07:15:12;18.94;73.57
73547;SHT30;61807;48.384;-4.386;2022-07-23T07:17:37;18.96;73.49
73547;SHT30;61807;48.384;-4.386;2022-07-23T07:20:03;19.00;73.27
73547;SHT30;61807;48.384;-4.386;2022-07-23T07:22:29;19.10;73.17
73547;SHT30;61807;48.384;-4.386;2022-07-23T07:24:55;19.19;73.05
73547;SHT30;61807;48.384;-4.386;2022-07-23T07:27:20;19.33;72.92
73547;SHT30;61807;48.384;-4.386;2022-07-23T07:29:46;19.49;72.68
73547;SHT30;61807;48.384;-4.386;2022-07-23T07:32:11;19.56;72.54
73547;SHT30;61807;48.384;-4.386;2022-07-23T07:34:36;19.66;72.42
73547;SHT30;61807;48.384;-4.386;2022-07-23T07:37:02;19.70;72.17
73547;SHT30;61807;48.384;-4.386;2022-07-23T07:39:27;19.71;72.08
73547;SHT30;61807;48.384;-4.386;2022-07-23T07:41:53;19.75;72.11
73547;SHT30;61807;48.384;-4.386;2022-07-23T07:44:18;19.78;72.01
73547;SHT30;61807;48.384;-4.386;2022-07-23T07:46:44;19.88;71.79
73547;SHT30;61807;48.384;-4.386;2022-07-23T07:49:09;19.94;71.77
73547;SHT30;61807;48.384;-4.386;2022-07-23T07:51:35;20.09;71.49
73547;SHT30;61807;48.384;-4.386;2022-07-23T07:54:01;20.21;70.77
73547;SHT30;61807;48.384;-4.386;2022-07-23T07:56:26;20.37;70.68
73547;SHT30;61807;48.384;-4.386;2022-07-23T07:58:51;20.54;70.17
73547;SHT30;61807;48.384;-4.386;2022-07-23T08:01:17;20.66;70.15
73547;SHT30;61807;48.384;-4.386;2022-07-23T08:03:44;20.73;69.56
73547;SHT30;61807;48.384;-4.386;2022-07-23T08:06:09;20.77;69.45
73547;SHT30;61807;48.384;-4.386;2022-07-23T08:08:35;20.79;69.22
73547;SHT30;61807;48.384;-4.386;2022-07-23T08:11:00;20.83;69.65
73547;SHT30;61807;48.384;-4.386;2022-07-23T08:13:26;20.85;69.15
73547;SHT30;61807;48.384;-4.386;2022-07-23T08:15:51;20.90;68.94
73547;SHT30;61807;48.384;-4.386;2022-07-23T08:18:18;20.93;68.97
73547;SHT30;61807;48.384;-4.386;2022-07-23T08:20:44;21.04;69.06
73547;SHT30;61807;48.384;-4.386;2022-07-23T08:23:09;21.21;68.69
73547;SHT30;61807;48.384;-4.386;2022-07-23T08:25:42;21.35;68.50
73547;SHT30;61807;48.384;-4.386;2022-07-23T08:28:09;21.43;68.04
73547;SHT30;61807;48.384;-4.386;2022-07-23T08:30:35;21.48;68.00
73547;SHT30;61807;48.384;-4.386;2022-07-23T08:33:07;21.52;67.64
73547;SHT30;61807;48.384;-4.386;2022-07-23T08:35:37;21.59;67.66
73547;SHT30;61807;48.384;-4.386;2022-07-23T08:38:05;21.61;67.60
73547;SHT30;61807;48.384;-4.386;2022-07-23T08:40:34;21.72;67.44
73547;SHT30;61807;48.384;-4.386;2022-07-23T08:43:00;21.79;66.63
73547;SHT30;61807;48.384;-4.386;2022-07-23T08:45:27;21.73;66.72
73547;SHT30;61807;48.384;-4.386;2022-07-23T08:47:55;21.71;66.75
73547;SHT30;61807;48.384;-4.386;2022-07-23T08:50:22;21.72;66.71
73547;SHT30;61807;48.384;-4.386;2022-07-23T08:52:49;21.76;66.56
73547;SHT30;61807;48.384;-4.386;2022-07-23T08:55:20;21.71;65.83
73547;SHT30;61807;48.384;-4.386;2022-07-23T08:57:48;21.66;66.06
73547;SHT30;61807;48.384;-4.386;2022-07-23T09:00:14;21.67;66.04
73547;SHT30;61807;48.384;-4.386;2022-07-23T09:02:41;21.66;65.66
73547;SHT30;61807;48.384;-4.386;2022-07-23T09:05:09;21.71;65.59
73547;SHT30;61807;48.384;-4.386;2022-07-23T09:07:35;21.75;65.92
73547;SHT30;61807;48.384;-4.386;2022-07-23T09:10:07;21.88;65.50
73547;SHT30;61807;48.384;-4.386;2022-07-23T09:12:32;21.92;65.58
73547;SHT30;61807;48.384;-4.386;2022-07-23T09:15:04;21.92;65.15
73547;SHT30;61807;48.384;-4.386;2022-07-23T09:17:37;21.89;65.09
73547;SHT30;61807;48.384;-4.386;2022-07-23T09:20:11;22.00;65.09
73547;SHT30;61807;48.384;-4.386;2022-07-23T09:22:37;22.07;64.95
73547;SHT30;61807;48.384;-4.386;2022-07-23T09:28:00;22.51;64.39
73547;SHT30;61807;48.384;-4.386;2022-07-23T09:30:30;22.58;63.90
73547;SHT30;61807;48.384;-4.386;2022-07-23T09:33:12;22.65;64.14
73547;SHT30;61807;48.384;-4.386;2022-07-23T09:35:51;22.65;63.92
73547;SHT30;61807;48.384;-4.386;2022-07-23T09:38:19;22.64;64.22
73547;SHT30;61807;48.384;-4.386;2022-07-23T09:40:46;22.61;64.00
73547;SHT30;61807;48.384;-4.386;2022-07-23T09:43:13;22.58;63.85
73547;SHT30;61807;48.384;-4.386;2022-07-23T09:45:51;22.65;63.96
73547;SHT30;61807;48.384;-4.386;2022-07-23T09:48:16;22.84;63.62
73547;SHT30;61807;48.384;-4.386;2022-07-23T09:50:43;22.99;63.07
73547;SHT30;61807;48.384;-4.386;2022-07-23T09:53:09;23.06;62.79
73547;SHT30;61807;48.384;-4.386;2022-07-23T09:55:36;23.09;62.62
73547;SHT30;61807;48.384;-4.386;2022-07-23T09:58:05;23.12;62.52
73547;SHT30;61807;48.384;-4.386;2022-07-23T10:00:38;23.13;62.20
73547;SHT30;61807;48.384;-4.386;2022-07-23T10:03:06;23.10;61.99
73547;SHT30;61807;48.384;-4.386;2022-07-23T10:05:33;23.15;62.42
73547;SHT30;61807;48.384;-4.386;2022-07-23T10:08:01;23.27;62.29
73547;SHT30;61807;48.384;-4.386;2022-07-23T10:10:27;23.34;61.79
73547;SHT30;61807;48.384;-4.386;2022-07-23T10:12:55;23.50;62.01
73547;SHT30;61807;48.384;-4.386;2022-07-23T10:15:35;23.51;61.49
73547;SHT30;61807;48.384;-4.386;2022-07-23T10:18:01;23.56;61.39
73547;SHT30;61807;48.384;-4.386;2022-07-23T10:20:26;23.82;61.25
73547;SHT30;61807;48.384;-4.386;2022-07-23T10:23:33;24.12;61.05
73547;SHT30;61807;48.384;-4.386;2022-07-23T10:26:11;24.45;60.49
73547;SHT30;61807;48.384;-4.386;2022-07-23T10:28:50;24.55;59.59
73547;SHT30;61807;48.384;-4.386;2022-07-23T10:31:49;24.69;58.28
73547;SHT30;61807;48.384;-4.386;2022-07-23T10:37:21;24.77;59.31
73547;SHT30;61807;48.384;-4.386;2022-07-23T10:42:35;24.64;59.11
73547;SHT30;61807;48.384;-4.386;2022-07-23T10:45:00;24.62;58.73
73547;SHT30;61807;48.384;-4.386;2022-07-23T10:47:28;24.55;58.63
73547;SHT30;61807;48.384;-4.386;2022-07-23T10:50:26;24.46;58.74
73547;SHT30;61807;48.384;-4.386;2022-07-23T10:57:59;24.16;58.90
73547;SHT30;61807;48.384;-4.386;2022-07-23T11:00:26;24.12;58.93
73547;SHT30;61807;48.384;-4.386;2022-07-23T11:02:55;24.11;58.93
73547;SHT30;61807;48.384;-4.386;2022-07-23T11:05:23;24.09;59.10
73547;SHT30;61807;48.384;-4.386;2022-07-23T11:13:37;23.91;58.97
73547;SHT30;61807;48.384;-4.386;2022-07-23T11:26:53;23.91;58.53
73547;SHT30;61807;48.384;-4.386;2022-07-23T11:36:56;23.95;57.84
73547;SHT30;61807;48.384;-4.386;2022-07-23T11:39:25;24.02;57.31
73547;SHT30;61807;48.384;-4.386;2022-07-23T11:41:51;24.18;57.35
73547;SHT30;61807;48.384;-4.386;2022-07-23T11:47:05;24.66;56.07
73547;SHT30;61807;48.384;-4.386;2022-07-23T11:49:32;24.95;55.63
73547;SHT30;61807;48.384;-4.386;2022-07-23T11:54:32;25.72;53.62
73547;SHT30;61807;48.384;-4.386;2022-07-23T11:57:00;26.19;52.47
73547;SHT30;61807;48.384;-4.386;2022-07-23T11:59:31;26.27;51.81
73547;SHT30;61807;48.384;-4.386;2022-07-23T12:02:03;26.29;51.78
73547;SHT30;61807;48.384;-4.386;2022-07-23T12:04:46;26.40;51.80
73547;SHT30;61807;48.384;-4.386;2022-07-23T12:07:50;26.37;52.63
73547;SHT30;61807;48.384;-4.386;2022-07-23T12:10:25;26.57;52.45
73547;SHT30;61807;48.384;-4.386;2022-07-23T12:12:53;26.81;51.19
73547;SHT30;61807;48.384;-4.386;2022-07-23T12:15:24;26.77;51.56
73547;SHT30;61807;48.384;-4.386;2022-07-23T12:17:52;26.78;51.71
73547;SHT30;61807;48.384;-4.386;2022-07-23T12:20:21;26.81;51.61
73547;SHT30;61807;48.384;-4.386;2022-07-23T12:22:50;26.77;52.10
73547;SHT30;61807;48.384;-4.386;2022-07-23T12:25:19;26.81;52.32
73547;SHT30;61807;48.384;-4.386;2022-07-23T12:27:57;26.78;52.02
73547;SHT30;61807;48.384;-4.386;2022-07-23T12:30:28;26.82;51.72
73547;SHT30;61807;48.384;-4.386;2022-07-23T12:32:56;26.79;52.54
73547;SHT30;61807;48.384;-4.386;2022-07-23T12:35:23;26.71;52.12
73547;SHT30;61807;48.384;-4.386;2022-07-23T12:37:50;26.68;52.69
73547;SHT30;61807;48.384;-4.386;2022-07-23T12:43:09;27.06;52.48
73547;SHT30;61807;48.384;-4.386;2022-07-23T12:45:45;27.06;52.43
73547;SHT30;61807;48.384;-4.386;2022-07-23T12:48:23;27.05;51.39
73547;SHT30;61807;48.384;-4.386;2022-07-23T12:51:20;27.00;52.82
73547;SHT30;61807;48.384;-4.386;2022-07-23T12:53:49;27.20;52.38
73547;SHT30;61807;48.384;-4.386;2022-07-23T12:56:17;27.50;51.59
73547;SHT30;61807;48.384;-4.386;2022-07-23T13:06:23;28.52;47.39
73547;SHT30;61807;48.384;-4.386;2022-07-23T13:08:49;28.65;48.11
73547;SHT30;61807;48.384;-4.386;2022-07-23T13:11:14;28.87;48.05
73547;SHT30;61807;48.384;-4.386;2022-07-23T13:13:41;28.99;47.40
73547;SHT30;61807;48.384;-4.386;2022-07-23T13:16:06;28.97;47.23
73547;SHT30;61807;48.384;-4.386;2022-07-23T13:18:32;29.14;47.42
73547;SHT30;61807;48.384;-4.386;2022-07-23T13:20:57;29.30;47.06
73547;SHT30;61807;48.384;-4.386;2022-07-23T13:23:23;29.50;47.13
73547;SHT30;61807;48.384;-4.386;2022-07-23T13:25:49;29.73;46.59
73547;SHT30;61807;48.384;-4.386;2022-07-23T13:28:16;29.81;46.70
73547;SHT30;61807;48.384;-4.386;2022-07-23T13:30:43;29.89;46.24
73547;SHT30;61807;48.384;-4.386;2022-07-23T13:33:09;29.62;46.16
73547;SHT30;61807;48.384;-4.386;2022-07-23T13:35:36;29.23;47.10
73547;SHT30;61807;48.384;-4.386;2022-07-23T13:38:03;28.93;47.17
73547;SHT30;61807;48.384;-4.386;2022-07-23T13:40:28;28.96;47.54
73547;SHT30;61807;48.384;-4.386;2022-07-23T13:42:54;29.23;47.43
73547;SHT30;61807;48.384;-4.386;2022-07-23T13:45:19;29.48;47.10
73547;SHT30;61807;48.384;-4.386;2022-07-23T13:47:45;29.71;46.87
73547;SHT30;61807;48.384;-4.386;2022-07-23T13:50:10;29.88;46.20
73547;SHT30;61807;48.384;-4.386;2022-07-23T13:52:36;29.98;45.87
73547;SHT30;61807;48.384;-4.386;2022-07-23T13:55:04;29.88;45.62
73547;SHT30;61807;48.384;-4.386;2022-07-23T13:57:32;29.81;46.08
73547;SHT30;61807;48.384;-4.386;2022-07-23T13:59:57;29.90;45.18
73547;SHT30;61807;48.384;-4.386;2022-07-23T14:02:23;29.95;45.99
73547;SHT30;61807;48.384;-4.386;2022-07-23T14:04:49;30.12;45.92
73547;SHT30;61807;48.384;-4.386;2022-07-23T14:07:14;30.16;45.50
73547;SHT30;61807;48.384;-4.386;2022-07-23T14:09:40;30.17;45.66
73547;SHT30;61807;48.384;-4.386;2022-07-23T14:12:06;30.17;45.64
73547;SHT30;61807;48.384;-4.386;2022-07-23T14:14:31;30.23;45.46
73547;SHT30;61807;48.384;-4.386;2022-07-23T14:16:57;30.27;45.74
73547;SHT30;61807;48.384;-4.386;2022-07-23T14:19:23;30.23;45.53
73547;SHT30;61807;48.384;-4.386;2022-07-23T14:21:48;30.26;45.37
73547;SHT30;61807;48.384;-4.386;2022-07-23T14:24:15;30.23;45.35
73547;SHT30;61807;48.384;-4.386;2022-07-23T14:26:41;30.09;45.21
73547;SHT30;61807;48.384;-4.386;2022-07-23T14:29:07;30.03;45.58
73547;SHT30;61807;48.384;-4.386;2022-07-23T14:31:32;29.95;45.97
73547;SHT30;61807;48.384;-4.386;2022-07-23T14:33:58;29.89;45.71
73547;SHT30;61807;48.384;-4.386;2022-07-23T14:36:25;29.76;46.03
73547;SHT30;61807;48.384;-4.386;2022-07-23T14:38:50;29.59;46.02
73547;SHT30;61807;48.384;-4.386;2022-07-23T14:41:16;29.45;46.03
73547;SHT30;61807;48.384;-4.386;2022-07-23T14:43:42;29.34;46.72
73547;SHT30;61807;48.384;-4.386;2022-07-23T14:46:07;29.37;46.23
73547;SHT30;61807;48.384;-4.386;2022-07-23T14:48:33;29.21;45.94
73547;SHT30;61807;48.384;-4.386;2022-07-23T14:50:58;29.04;46.62
73547;SHT30;61807;48.384;-4.386;2022-07-23T14:53:23;29.02;46.30
73547;SHT30;61807;48.384;-4.386;2022-07-23T14:55:49;28.80;46.40
73547;SHT30;61807;48.384;-4.386;2022-07-23T14:58:14;28.60;46.93
73547;SHT30;61807;48.384;-4.386;2022-07-23T15:00:40;28.55;47.19
73547;SHT30;61807;48.384;-4.386;2022-07-23T15:03:05;28.51;46.84
73547;SHT30;61807;48.384;-4.386;2022-07-23T15:05:31;28.51;46.92
73547;SHT30;61807;48.384;-4.386;2022-07-23T15:07:56;28.19;46.94
73547;SHT30;61807;48.384;-4.386;2022-07-23T15:10:22;27.90;47.81
73547;SHT30;61807;48.384;-4.386;2022-07-23T15:12:48;27.67;48.07
73547;SHT30;61807;48.384;-4.386;2022-07-23T15:15:14;27.37;48.54
73547;SHT30;61807;48.384;-4.386;2022-07-23T15:17:39;27.19;48.87
73547;SHT30;61807;48.384;-4.386;2022-07-23T15:20:05;27.26;49.27
73547;SHT30;61807;48.384;-4.386;2022-07-23T15:22:31;27.35;48.91
73547;SHT30;61807;48.384;-4.386;2022-07-23T15:24:56;27.37;49.07
73547;SHT30;61807;48.384;-4.386;2022-07-23T15:27:22;27.39;48.94
73547;SHT30;61807;48.384;-4.386;2022-07-23T15:29:47;27.33;48.88
73547;SHT30;61807;48.384;-4.386;2022-07-23T15:32:13;27.37;48.64
73547;SHT30;61807;48.384;-4.386;2022-07-23T15:34:38;27.27;48.53
73547;SHT30;61807;48.384;-4.386;2022-07-23T15:37:04;27.23;48.83
73547;SHT30;61807;48.384;-4.386;2022-07-23T15:39:33;27.08;48.84
73547;SHT30;61807;48.384;-4.386;2022-07-23T15:42:02;26.96;48.75
73547;SHT30;61807;48.384;-4.386;2022-07-23T15:44:28;26.88;49.19
73547;SHT30;61807;48.384;-4.386;2022-07-23T15:46:54;26.74;49.09
73547;SHT30;61807;48.384;-4.386;2022-07-23T15:49:20;26.64;49.38
73547;SHT30;61807;48.384;-4.386;2022-07-23T15:51:45;26.58;49.78
73547;SHT30;61807;48.384;-4.386;2022-07-23T15:54:11;26.54;49.42
73547;SHT30;61807;48.384;-4.386;2022-07-23T15:56:36;26.34;49.82
73547;SHT30;61807;48.384;-4.386;2022-07-23T15:59:02;26.19;50.10
73547;SHT30;61807;48.384;-4.386;2022-07-23T16:01:27;26.12;50.57
73547;SHT30;61807;48.384;-4.386;2022-07-23T16:03:56;26.03;50.63
73547;SHT30;61807;48.384;-4.386;2022-07-23T16:06:24;25.99;51.02